Retrouvez également nos données météorologiques sur:

UK Metoffice

Weather Underground

AWEKAS

Citizen Weather Observer Program (CWOP)



Rapports METAR à proximité

   
LFOJ - Montargis
Mise à jour: 16-09-2019 00:00
Ciel dégagé  
Ciel dégagé  
   Vent: NE 5.6 km/h
Vent: NE 5.6 km/h
Température: 17°C
Point de rosée: 8°C
Humidité: 56%
Pression atmosphérique: 1022 hPa
Visibilité: More than 10 km
Nébulosité: Ciel dégagé
LFOJ 152200Z AUTO 04003KT CAVOK 17/08 Q1022
LFOJ - Orléans
Mise à jour: 16-09-2019 00:00
Ciel dégagé  
Ciel dégagé  
   Vent: NE 5.6 km/h
Vent: NE 5.6 km/h
Température: 17°C
Point de rosée: 8°C
Humidité: 56%
Pression atmosphérique: 1022 hPa
Visibilité: More than 10 km
Nébulosité: Ciel dégagé
LFOJ 152200Z AUTO 04003KT CAVOK 17/08 Q1022
LFQB - Sens
Mise à jour: 16-09-2019 00:00
Ciel dégagé  
Ciel dégagé  
   Vent: ONO 9.3 km/h
Vent: ONO 9.3 km/h
Température: 15°C
Point de rosée: 11°C
Humidité: 77%
Pression atmosphérique: 1022 hPa
Visibilité: More than 10 km
Nébulosité: Ciel dégagé
LFQB 152200Z AUTO 29005KT CAVOK 15/11 Q1022
LFQB - Auxerre
Mise à jour: 16-09-2019 00:00
Ciel dégagé  
Ciel dégagé  
   Vent: ONO 9.3 km/h
Vent: ONO 9.3 km/h
Température: 15°C
Point de rosée: 11°C
Humidité: 77%
Pression atmosphérique: 1022 hPa
Visibilité: More than 10 km
Nébulosité: Ciel dégagé
LFQB 152200Z AUTO 29005KT CAVOK 15/11 Q1022
LFPO - Paris
Mise à jour: 16-09-2019 00:00
Ciel dégagé  
Ciel dégagé  
   Vent: Nord 11.1 km/h
Vent: Nord 11.1 km/h
Température: 19°C
Point de rosée: 11°C
Humidité: 60%
Pression atmosphérique: 1023 hPa
Visibilité: More than 10 km
Nébulosité: Ciel dégagé
LFPO 152200Z 36006KT CAVOK 19/11 Q1023 NOSIG
LFLX - Bourges
Mise à jour: 16-09-2019 00:00
Ciel dégagé  
Ciel dégagé  
   Vent: NNE 11.1 km/h
Vent: NNE 11.1 km/h
Température: 20°C
Point de rosée: 10°C
Humidité: 53%
Pression atmosphérique: 1021 hPa
Visibilité: More than 10 km
Nébulosité: Ciel dégagé
LFLX 152200Z AUTO 02006KT CAVOK 20/10 Q1021 NOSIG

Original script by  Saratoga-weather.org Adapted for the template by  Weerstation Leuven